Charlottenlund, Denmark
Current Conditions -  °F | °C
As of 6:50 AM on Wednesday 22 Oct 2014 (Local Time) from EKCH Reporting Station
Broken Clouds Broken Clouds  
Wind Chill: 54°   Ceiling: 3700
Heat Index: 54°   Visibility: 6mi
Dew Point: 52°   Wind: 10mph
Humidity: 94%   Direction: 80°E
Pressure: 29.5"   Gusts: NA
Location:  55.75°N, 12.59°E
Report Text: EKCH 220450Z 08009KT 9999 FEW007 BKN037 12/11 Q0999 NOSIG
Loading
Personal Weather Stations






























Interactive Weather Map
Tropical Storm Tracking
New forecast layout! Learn more

10-Day Weather Forecast

Advertisements
Track Severe Weather on mobile